Time;durP1;ratioP1;P1;durP2;ratioP2;P2;SDS_P1;SDS_P2;PMS_P1;PMS_P2;Temp;Humidity;BMP_temperature;BMP_pressure;BME280_temperature;BME280_humidity;BME280_pressure;Samples;Min_cycle;Max_cycle;Signal;HPM_P1;HPM_P2
2023/08/28 00:02:06;;;;;;;20.20;18.67;;;;;;;21.17;68.84;99638.22;5032280;27;98455;-83
2023/08/28 00:04:31;;;;;;;20.35;18.80;;;;;;;21.19;68.70;99631.75;5019316;28;97866;-83
2023/08/28 00:06:57;;;;;;;19.65;18.33;;;;;;;21.19;68.76;99637.09;5032078;28;97256;-83
2023/08/28 00:09:22;;;;;;;20.75;19.30;;;;;;;21.09;68.92;99614.91;5002887;28;98843;-83
2023/08/28 00:11:48;;;;;;;19.30;18.00;;;;;;;21.12;68.69;99616.41;5025816;28;98307;-82
2023/08/28 00:14:13;;;;;;;20.25;18.88;;;;;;;21.12;68.48;99606.63;5012392;28;97064;-83
2023/08/28 00:16:39;;;;;;;19.38;17.98;;;;;;;21.07;68.58;99602.66;5027656;28;96830;-83
2023/08/28 00:19:04;;;;;;;19.20;17.90;;;;;;;21.10;68.41;99615.72;5032022;28;99173;-83
2023/08/28 00:21:30;;;;;;;19.83;18.33;;;;;;;21.09;68.57;99625.56;5031885;27;98422;-83
2023/08/28 00:23:55;;;;;;;20.13;18.65;;;;;;;21.10;68.71;99631.75;5017929;28;96823;-84
2023/08/28 00:26:21;;;;;;;20.10;18.70;;;;;;;21.07;68.69;99630.19;5032347;28;97057;-83
2023/08/28 00:28:46;;;;;;;20.08;18.77;;;;;;;21.03;68.96;99626.09;5017463;28;98942;-83
2023/08/28 00:31:12;;;;;;;19.60;18.20;;;;;;;20.95;68.88;99617.94;5013923;28;100185;-83
2023/08/28 00:33:37;;;;;;;18.90;17.70;;;;;;;20.91;69.28;99619.16;4999958;28;96993;-83
2023/08/28 00:36:03;;;;;;;19.70;18.30;;;;;;;20.95;69.53;99629.44;5025964;28;96764;-82
2023/08/28 00:38:29;;;;;;;19.60;18.30;;;;;;;21.00;69.05;99635.22;4993499;28;100626;-83
2023/08/28 00:40:54;;;;;;;19.75;18.33;;;;;;;20.99;69.01;99635.34;5016271;28;97691;-83
2023/08/28 00:43:20;;;;;;;20.00;18.52;;;;;;;21.00;69.11;99624.56;5013526;28;96860;-83
2023/08/28 00:45:47;;;;;;;19.88;18.23;;;;;;;20.96;68.83;99624.94;5032106;28;96778;-84
2023/08/28 00:48:16;;;;;;;20.05;18.70;;;;;;;20.97;69.09;99639.97;5013400;28;99468;-83
2023/08/28 00:50:41;;;;;;;20.20;18.65;;;;;;;20.95;69.06;99623.28;5014169;27;98630;-83
2023/08/28 00:53:07;;;;;;;19.38;17.92;;;;;;;20.95;68.99;99637.44;5010810;28;96780;-83
2023/08/28 00:55:34;;;;;;;20.02;18.63;;;;;;;20.97;69.10;99626.63;4994258;28;97472;-83
2023/08/28 00:58:01;;;;;;;20.00;18.60;;;;;;;20.96;68.79;99622.28;5025617;28;98572;-83
2023/08/28 01:00:28;;;;;;;18.98;17.77;;;;;;;20.92;68.96;99627.06;5006119;27;100004;-83
2023/08/28 01:02:55;;;;;;;19.92;18.52;;;;;;;20.92;69.10;99642.22;5006549;28;96726;-83
2023/08/28 01:05:39;;;;;;;20.33;18.67;;;;;;;20.91;68.78;99648.50;5023795;28;96960;-83
2023/08/28 01:08:14;;;;;;;18.92;17.73;;;;;;;20.87;69.22;99644.44;4999406;28;101144;-83
2023/08/28 01:10:46;;;;;;;20.17;18.67;;;;;;;20.90;68.87;99654.84;4993702;28;100577;-83
2023/08/28 01:13:19;;;;;;;20.05;18.65;;;;;;;20.92;68.75;99668.91;5015893;28;97105;-83
2023/08/28 01:15:49;;;;;;;19.45;18.15;;;;;;;20.91;68.53;99667.19;4986155;28;97199;-83
2023/08/28 01:18:14;;;;;;;20.33;18.70;;;;;;;20.88;68.23;99665.63;5013078;28;98564;-84
2023/08/28 01:20:40;;;;;;;19.52;18.08;;;;;;;20.84;68.35;99653.56;4997092;28;100159;-84
2023/08/28 01:23:52;;;;;;;19.98;18.38;;;;;;;20.90;68.48;99660.16;5012357;28;97489;-83
2023/08/28 01:26:17;;;;;;;19.83;18.20;;;;;;;20.86;68.64;99654.28;4984480;28;97218;-83
2023/08/28 01:28:44;;;;;;;20.42;18.63;;;;;;;20.86;68.68;99667.59;5015534;28;100953;-83
2023/08/28 01:31:10;;;;;;;19.23;17.92;;;;;;;20.81;68.73;99680.50;5002374;28;97623;-83
2023/08/28 01:33:35;;;;;;;19.60;18.20;;;;;;;20.84;68.73;99682.88;5028630;28;97197;-83
2023/08/28 01:36:14;;;;;;;20.00;18.60;;;;;;;20.85;68.33;99695.22;4996526;28;97117;-83
2023/08/28 01:38:45;;;;;;;20.48;18.75;;;;;;;20.75;68.41;99683.69;4996221;28;100598;-84
2023/08/28 01:41:12;;;;;;;20.05;18.48;;;;;;;20.72;68.28;99676.78;5009602;28;98853;-83
2023/08/28 01:43:42;;;;;;;20.00;18.40;;;;;;;20.73;68.55;99694.47;5011635;28;96903;-83
2023/08/28 01:46:08;;;;;;;19.80;18.20;;;;;;;20.66;68.57;99706.66;5009254;28;96877;-84
2023/08/28 01:48:35;;;;;;;20.98;19.20;;;;;;;20.62;68.48;99699.03;5002090;28;98547;-83
2023/08/28 01:51:01;;;;;;;19.58;18.27;;;;;;;20.68;68.61;99703.84;5006699;28;100182;-83
2023/08/28 01:53:27;;;;;;;19.60;18.10;;;;;;;20.61;68.38;99703.53;5010041;28;96737;-83
2023/08/28 01:56:08;;;;;;;19.65;18.25;;;;;;;20.68;68.46;99698.50;4996571;28;96890;-83
2023/08/28 01:58:45;;;;;;;19.48;18.05;;;;;;;20.71;68.03;99695.59;5029785;27;100675;-83
2023/08/28 02:01:11;;;;;;;20.10;18.50;;;;;;;20.64;68.34;99679.28;5008365;28;99137;-84
2023/08/28 02:03:39;;;;;;;20.35;18.77;;;;;;;20.64;68.44;99692.59;5028734;28;96973;-83
2023/08/28 02:06:08;;;;;;;20.20;18.85;;;;;;;20.65;68.56;99696.13;5016289;28;96839;-84
2023/08/28 02:08:36;;;;;;;19.25;17.95;;;;;;;20.65;68.25;99704.94;5015747;28;97914;-83
2023/08/28 02:11:01;;;;;;;19.52;18.02;;;;;;;20.65;68.15;99702.28;5012433;28;100034;-83
2023/08/28 02:13:27;;;;;;;20.52;18.67;;;;;;;20.67;68.19;99707.50;5027447;27;96875;-83
2023/08/28 02:15:53;;;;;;;21.08;19.23;;;;;;;20.67;68.53;99707.50;5015338;28;96793;-83
2023/08/28 02:18:18;;;;;;;20.48;18.98;;;;;;;20.64;67.92;99692.59;5022382;28;98802;-83
2023/08/28 02:20:44;;;;;;;19.73;18.35;;;;;;;20.61;68.02;99695.53;5013333;28;100389;-84
2023/08/28 02:23:10;;;;;;;19.52;17.85;;;;;;;20.58;68.13;99687.81;5008455;28;97163;-84
2023/08/28 02:25:40;;;;;;;18.75;17.55;;;;;;;20.51;68.40;99678.63;5027989;28;97575;-83
2023/08/28 02:28:06;;;;;;;20.17;18.63;;;;;;;20.54;68.50;99694.38;5014770;28;101638;-83
2023/08/28 02:30:31;;;;;;;19.70;18.30;;;;;;;20.53;68.42;99687.34;5025087;28;98269;-83
2023/08/28 02:32:57;;;;;;;19.95;18.27;;;;;;;20.49;68.40;99683.22;4999084;28;97881;-83
2023/08/28 02:35:22;;;;;;;19.75;18.23;;;;;;;20.47;68.34;99685.19;5006342;28;96838;-84
2023/08/28 02:37:48;;;;;;;19.70;18.40;;;;;;;20.54;68.34;99695.22;5027591;28;99017;-83
2023/08/28 02:40:13;;;;;;;20.08;18.52;;;;;;;20.48;67.86;99679.72;5020406;28;97622;-82
2023/08/28 02:42:39;;;;;;;20.00;18.52;;;;;;;20.51;67.89;99673.28;5001218;28;96845;-83
2023/08/28 02:45:05;;;;;;;19.55;18.25;;;;;;;20.54;67.99;99679.22;5012018;28;96933;-84
2023/08/28 02:47:31;;;;;;;20.60;18.88;;;;;;;20.51;68.33;99684.78;5015657;28;100916;-83
2023/08/28 02:49:57;;;;;;;19.90;18.48;;;;;;;20.50;67.96;99679.56;5019180;28;98373;-83
2023/08/28 02:52:23;;;;;;;20.70;19.30;;;;;;;20.50;68.04;99690.25;5025152;27;96875;-84
2023/08/28 02:54:49;;;;;;;19.90;18.52;;;;;;;20.46;67.84;99675.50;5037562;27;96911;-83
2023/08/28 02:57:14;;;;;;;21.48;19.38;;;;;;;20.45;67.93;99679.13;5027981;28;98848;-83
2023/08/28 02:59:40;;;;;;;20.80;18.80;;;;;;;20.40;68.06;99676.88;5015162;28;100702;-83
2023/08/28 03:02:05;;;;;;;20.45;18.75;;;;;;;20.42;68.02;99690.91;5013686;28;97040;-83
2023/08/28 03:04:34;;;;;;;20.77;19.27;;;;;;;20.36;67.91;99680.75;5014756;28;97147;-83
2023/08/28 03:07:00;;;;;;;19.88;18.30;;;;;;;20.41;67.89;99689.19;5000238;28;98811;-84
2023/08/28 03:09:25;;;;;;;20.23;18.55;;;;;;;20.40;67.90;99689.34;5027004;28;98593;-84
2023/08/28 03:11:51;;;;;;;20.45;18.85;;;;;;;20.38;68.08;99683.28;5015149;28;96797;-83
2023/08/28 03:14:17;;;;;;;19.90;18.50;;;;;;;20.34;67.92;99677.38;5018907;28;97064;-83
2023/08/28 03:16:42;;;;;;;20.42;18.48;;;;;;;20.37;67.90;99687.78;5023121;28;97887;-83
2023/08/28 03:19:08;;;;;;;20.38;18.88;;;;;;;20.28;68.05;99680.56;5012727;28;100402;-82
2023/08/28 03:21:34;;;;;;;20.17;18.40;;;;;;;20.26;68.19;99691.34;5003520;28;97168;-83
2023/08/28 03:23:59;;;;;;;20.13;18.67;;;;;;;20.25;68.17;99695.00;5012081;28;96848;-83
2023/08/28 03:26:26;;;;;;;20.08;18.52;;;;;;;20.21;67.84;99698.03;5008359;28;100053;-83
2023/08/28 03:28:51;;;;;;;20.90;18.98;;;;;;;20.27;67.92;99717.00;5024282;27;98766;-84
2023/08/28 03:31:17;;;;;;;20.38;18.58;;;;;;;20.26;67.39;99718.00;5014236;28;96747;-83
2023/08/28 03:33:43;;;;;;;20.50;19.00;;;;;;;20.21;67.37;99722.84;5014935;28;96917;-83
2023/08/28 03:36:08;;;;;;;20.52;18.80;;;;;;;20.21;67.38;99714.88;5030499;28;98556;-83
2023/08/28 03:38:34;;;;;;;20.17;18.33;;;;;;;20.25;67.18;99720.81;5002281;28;98587;-83
2023/08/28 03:40:59;;;;;;;20.40;18.48;;;;;;;20.13;67.40;99706.69;5011915;27;96705;-83
2023/08/28 03:43:25;;;;;;;20.63;19.05;;;;;;;20.27;67.50;99730.34;5028709;28;96919;-83
2023/08/28 03:45:50;;;;;;;20.15;18.55;;;;;;;20.30;67.54;99732.78;5020942;28;97653;-83
2023/08/28 03:48:16;;;;;;;21.08;19.08;;;;;;;20.31;67.63;99736.28;5026118;28;98623;-83
2023/08/28 03:50:42;;;;;;;20.10;18.55;;;;;;;20.26;67.50;99744.66;5022881;28;97320;-83
2023/08/28 03:53:07;;;;;;;20.67;19.17;;;;;;;20.28;67.71;99736.53;5018768;28;96787;-83
2023/08/28 03:55:33;;;;;;;20.65;19.05;;;;;;;20.24;67.69;99741.25;5031920;28;98613;-83
2023/08/28 03:58:02;;;;;;;19.88;18.52;;;;;;;20.24;67.30;99741.25;5010999;28;99698;-84
2023/08/28 04:00:28;;;;;;;21.67;19.48;;;;;;;20.24;67.36;99735.94;5014393;28;96713;-83
2023/08/28 04:02:53;;;;;;;21.60;19.92;;;;;;;20.21;66.82;99727.34;5006607;28;96817;-83
2023/08/28 04:05:19;;;;;;;20.52;19.08;;;;;;;20.27;67.08;99743.66;5026696;28;99016;-83
2023/08/28 04:07:44;;;;;;;20.52;19.02;;;;;;;20.23;67.25;99750.22;5008299;28;100239;-83
2023/08/28 04:10:10;;;;;;;20.80;19.17;;;;;;;20.16;66.90;99740.19;5007192;28;97041;-83
2023/08/28 04:12:36;;;;;;;21.15;19.38;;;;;;;20.20;66.69;99774.47;5000431;28;96844;-83
2023/08/28 04:15:03;;;;;;;21.55;20.05;;;;;;;20.20;66.48;99782.47;5022137;28;98620;-83
2023/08/28 04:17:30;;;;;;;21.15;19.35;;;;;;;20.18;66.29;99775.56;5011590;28;100430;-83
2023/08/28 04:19:56;;;;;;;20.20;18.80;;;;;;;20.20;66.55;99784.28;5021260;28;96735;-83
2023/08/28 04:22:22;;;;;;;21.85;20.15;;;;;;;20.18;67.04;99784.41;5011889;28;96940;-83
2023/08/28 04:24:51;;;;;;;21.02;19.45;;;;;;;20.18;66.86;99776.41;5025869;28;98545;-83
2023/08/28 04:27:17;;;;;;;21.23;19.52;;;;;;;20.20;66.77;99774.47;5007667;28;100468;-83
2023/08/28 04:29:43;;;;;;;21.60;19.70;;;;;;;20.12;66.81;99756.44;5014162;28;97289;-83
2023/08/28 04:32:09;;;;;;;20.77;19.35;;;;;;;20.23;66.98;99762.72;5021351;28;96846;-82
2023/08/28 04:34:36;;;;;;;21.15;19.25;;;;;;;20.20;66.97;99755.81;5007927;28;100838;-82
2023/08/28 04:37:03;;;;;;;20.58;19.10;;;;;;;20.24;66.74;99756.41;5014783;28;99974;-83
2023/08/28 04:39:29;;;;;;;20.73;19.33;;;;;;;20.23;67.00;99758.22;4983436;28;96651;-82
2023/08/28 04:41:54;;;;;;;20.40;19.05;;;;;;;20.23;66.89;99755.56;5027698;28;96815;-82
2023/08/28 04:44:20;;;;;;;22.23;20.45;;;;;;;20.24;66.76;99749.25;5017039;28;100948;-82
2023/08/28 04:46:46;;;;;;;21.20;19.70;;;;;;;20.25;66.84;99750.13;5021499;28;98536;-83
2023/08/28 04:49:12;;;;;;;22.40;20.35;;;;;;;20.15;67.33;99744.69;4997703;28;96952;-82
2023/08/28 04:51:37;;;;;;;20.63;18.95;;;;;;;20.19;67.42;99742.59;5029797;28;97199;-83
2023/08/28 04:54:03;;;;;;;22.92;21.08;;;;;;;20.13;67.73;99744.00;5025340;28;98138;-82
2023/08/28 04:56:28;;;;;;;21.88;20.42;;;;;;;20.22;67.79;99745.88;5020893;28;98389;-82
2023/08/28 04:58:54;;;;;;;21.98;20.35;;;;;;;20.24;67.38;99749.25;5010003;28;97218;-83
2023/08/28 05:01:19;;;;;;;20.95;19.35;;;;;;;20.15;67.52;99728.69;5025770;28;96931;-83
2023/08/28 05:03:45;;;;;;;21.48;19.77;;;;;;;20.27;67.18;99748.16;5016942;27;100261;-82
2023/08/28 05:06:10;;;;;;;20.52;19.02;;;;;;;20.28;66.92;99753.38;5048210;27;98491;-83
2023/08/28 05:08:36;;;;;;;21.02;19.55;;;;;;;20.35;66.52;99761.69;5003572;28;96832;-80
2023/08/28 05:11:04;;;;;;;20.13;18.83;;;;;;;20.34;66.33;99763.50;5013600;28;96917;-83
2023/08/28 05:13:30;;;;;;;20.67;19.38;;;;;;;20.27;66.34;99756.16;5016536;28;98724;-82
2023/08/28 05:15:55;;;;;;;20.63;19.23;;;;;;;20.28;66.27;99760.53;5003238;28;100584;-83
2023/08/28 05:18:22;;;;;;;20.42;18.77;;;;;;;20.32;66.27;99765.44;5013964;28;97316;-82
2023/08/28 05:20:47;;;;;;;21.85;20.15;;;;;;;20.30;65.86;99783.41;5029497;28;97203;-83
2023/08/28 05:23:13;;;;;;;21.65;19.80;;;;;;;20.29;66.23;99789.69;5022599;28;98981;-83
2023/08/28 05:25:38;;;;;;;21.08;19.48;;;;;;;20.29;66.31;99794.19;5014137;28;100052;-82
2023/08/28 05:28:04;;;;;;;20.90;19.20;;;;;;;20.29;66.03;99805.69;5029423;28;96757;-82
2023/08/28 05:30:30;;;;;;;20.98;19.27;;;;;;;20.25;65.87;99801.59;5027092;28;96724;-82
2023/08/28 05:32:56;;;;;;;20.35;18.75;;;;;;;20.25;65.73;99801.59;5016260;28;100479;-83
2023/08/28 05:35:22;;;;;;;20.17;18.85;;;;;;;20.20;65.83;99795.78;5007011;28;100501;-83
2023/08/28 05:37:47;;;;;;;21.20;19.80;;;;;;;20.28;65.87;99795.16;5011056;28;97211;-82
2023/08/28 05:40:14;;;;;;;21.42;19.38;;;;;;;20.32;65.60;99794.78;5017018;28;96832;-82
2023/08/28 05:42:42;;;;;;;19.88;18.23;;;;;;;20.37;65.74;99788.22;5002642;28;100420;-83
2023/08/28 05:45:08;;;;;;;19.50;18.30;;;;;;;20.31;65.69;99785.09;5021022;28;98746;-83
2023/08/28 05:47:36;;;;;;;20.17;18.92;;;;;;;20.32;65.34;99794.78;5019900;28;96851;-82
2023/08/28 05:50:03;;;;;;;20.83;19.00;;;;;;;20.30;65.24;99785.19;5011178;28;96770;-84
2023/08/28 05:52:29;;;;;;;19.20;17.90;;;;;;;20.28;65.68;99771.19;5008437;28;100397;-83
2023/08/28 05:54:54;;;;;;;19.70;18.40;;;;;;;20.37;65.60;99769.56;5013882;28;97369;-82
2023/08/28 05:57:21;;;;;;;20.88;19.33;;;;;;;20.44;65.46;99765.41;5016149;28;96745;-83
2023/08/28 05:59:46;;;;;;;19.48;18.27;;;;;;;20.58;65.42;99771.28;5021458;27;97415;-83
2023/08/28 06:02:13;;;;;;;20.10;18.48;;;;;;;20.89;64.92;99773.19;5013441;28;100318;-83
2023/08/28 06:04:38;;;;;;;20.50;18.80;;;;;;;20.94;64.32;99770.94;5018245;28;97135;-82
2023/08/28 06:07:04;;;;;;;21.02;19.10;;;;;;;20.93;63.71;99774.59;5015478;28;96754;-83
2023/08/28 06:09:30;;;;;;;19.23;18.02;;;;;;;20.88;63.76;99775.00;5019572;28;96672;-83
2023/08/28 06:11:55;;;;;;;18.45;17.25;;;;;;;20.91;63.80;99776.56;5028299;27;98063;-82
2023/08/28 06:14:23;;;;;;;19.98;18.65;;;;;;;20.91;63.85;99790.72;4999872;28;100203;-83
2023/08/28 06:16:49;;;;;;;19.98;18.67;;;;;;;20.92;63.82;99791.59;5011858;28;97265;-83
2023/08/28 06:19:15;;;;;;;19.30;18.00;;;;;;;20.88;63.92;99796.31;5024286;28;96755;-83
2023/08/28 06:21:44;;;;;;;19.20;18.00;;;;;;;20.92;63.71;99807.59;5012485;28;100289;-83
2023/08/28 06:24:11;;;;;;;19.60;18.40;;;;;;;20.89;63.52;99795.38;5024482;27;96921;-83
2023/08/28 06:26:38;;;;;;;20.15;18.65;;;;;;;20.90;63.74;99782.88;5025999;28;96715;-83
2023/08/28 06:29:03;;;;;;;20.63;19.17;;;;;;;20.89;63.80;99782.03;5015742;28;97200;-83
2023/08/28 06:31:29;;;;;;;19.98;18.55;;;;;;;21.01;63.47;99775.63;5045930;27;97918;-83
2023/08/28 06:33:54;;;;;;;20.00;18.52;;;;;;;21.19;63.75;99759.84;5034145;27;98618;-83
2023/08/28 06:36:20;;;;;;;19.70;18.50;;;;;;;21.14;62.85;99738.06;5018249;28;96867;-83
2023/08/28 06:38:48;;;;;;;20.38;18.98;;;;;;;21.39;62.29;99738.63;5017232;28;96973;-83
2023/08/28 06:41:14;;;;;;;21.15;19.63;;;;;;;21.46;63.04;99723.72;5023548;28;98858;-84
2023/08/28 06:43:39;;;;;;;20.42;18.58;;;;;;;21.40;63.31;99727.78;5032852;27;98754;-83
2023/08/28 06:46:05;;;;;;;21.25;19.60;;;;;;;21.44;63.74;99723.88;5033557;27;97040;-83
2023/08/28 06:48:30;;;;;;;22.45;20.23;;;;;;;21.43;63.92;99716.00;5029024;28;96779;-82
2023/08/28 06:50:57;;;;;;;20.67;18.95;;;;;;;21.46;63.65;99694.38;5030083;28;98814;-82
2023/08/28 06:53:22;;;;;;;22.17;20.25;;;;;;;21.46;62.77;99673.00;5029504;28;98267;-82
2023/08/28 06:55:49;;;;;;;21.35;19.35;;;;;;;21.45;63.20;99692.69;5033019;28;97117;-82
2023/08/28 06:58:15;;;;;;;21.40;19.40;;;;;;;21.43;62.63;99695.47;5031321;27;96766;-83
2023/08/28 07:00:43;;;;;;;21.98;20.05;;;;;;;21.47;62.72;99685.41;5014045;28;100967;-82
2023/08/28 07:03:09;;;;;;;20.98;19.48;;;;;;;21.39;62.87;99683.41;5015259;28;98304;-82
2023/08/28 07:05:34;;;;;;;20.63;19.23;;;;;;;21.42;62.75;99695.63;5019123;28;96779;-82
2023/08/28 07:08:00;;;;;;;20.98;18.95;;;;;;;21.41;62.12;99689.44;5017704;28;96862;-82
2023/08/28 07:10:25;;;;;;;20.65;19.05;;;;;;;21.51;62.34;99699.31;5018544;28;98649;-83
2023/08/28 07:12:51;;;;;;;21.70;19.88;;;;;;;21.47;62.33;99712.09;5018982;28;98371;-82
2023/08/28 07:15:20;;;;;;;21.70;19.73;;;;;;;21.35;62.62;99707.78;5039701;27;96762;-83
2023/08/28 07:17:45;;;;;;;20.70;19.27;;;;;;;21.31;62.07;99720.56;5025310;27;96833;-82
2023/08/28 07:20:11;;;;;;;21.80;19.75;;;;;;;21.24;62.81;99732.78;5039269;27;98701;-72
2023/08/28 07:22:36;;;;;;;22.60;20.35;;;;;;;21.16;63.07;99743.28;5037226;27;98385;-72
2023/08/28 07:25:02;;;;;;;21.50;19.70;;;;;;;21.07;63.20;99755.59;5034856;27;97056;-72
2023/08/28 07:27:28;;;;;;;20.02;18.45;;;;;;;21.05;62.96;99749.53;5016066;28;97152;-72
2023/08/28 07:29:53;;;;;;;21.83;19.58;;;;;;;21.00;63.09;99743.75;5025533;28;98598;-72
2023/08/28 07:32:19;;;;;;;20.23;18.73;;;;;;;20.96;63.26;99761.84;5024096;28;98305;-72
2023/08/28 07:34:44;;;;;;;19.58;18.17;;;;;;;20.97;63.43;99766.22;5015593;27;96722;-72
2023/08/28 07:37:10;;;;;;;18.95;17.27;;;;;;;20.94;63.28;99779.81;5040417;27;98684;-72
2023/08/28 07:39:36;;;;;;;19.35;18.00;;;;;;;20.96;63.03;99785.00;5031710;27;98829;-72
2023/08/28 07:42:02;;;;;;;19.75;18.45;;;;;;;21.05;62.28;99797.56;5041945;27;98626;-72
2023/08/28 07:44:28;;;;;;;20.25;18.27;;;;;;;21.14;62.16;99801.25;5016287;28;96911;-84
2023/08/28 07:46:53;;;;;;;21.15;18.55;;;;;;;21.18;62.08;99814.22;5000744;28;97498;-82
2023/08/28 07:49:19;;;;;;;19.77;18.25;;;;;;;21.20;62.13;99822.06;5019690;28;100438;-82
2023/08/28 07:51:44;;;;;;;19.17;17.88;;;;;;;21.29;61.89;99836.44;5030826;27;98739;-86
2023/08/28 07:54:11;;;;;;;18.95;17.75;;;;;;;21.32;61.46;99837.06;5048796;27;96857;-88
2023/08/28 07:56:37;;;;;;;21.35;19.00;;;;;;;21.38;61.19;99846.34;5017419;27;97158;-83
2023/08/28 07:59:04;;;;;;;19.90;18.48;;;;;;;21.42;61.51;99855.81;5011512;28;98594;-82
2023/08/28 08:01:31;;;;;;;20.73;18.52;;;;;;;21.44;61.44;99844.03;5003938;28;98309;-83
2023/08/28 08:03:57;;;;;;;20.50;18.63;;;;;;;21.51;61.45;99852.34;5041973;27;96584;-83
2023/08/28 08:06:23;;;;;;;20.27;18.98;;;;;;;21.56;61.16;99843.94;5021809;28;97054;-82
2023/08/28 08:08:49;;;;;;;20.15;18.55;;;;;;;21.62;61.18;99844.25;5024278;28;98728;-82
2023/08/28 08:11:14;;;;;;;19.73;18.33;;;;;;;21.59;61.18;99854.34;5017316;28;98256;-82
2023/08/28 08:13:40;;;;;;;20.55;18.80;;;;;;;21.50;61.45;99848.00;5017356;27;97102;-82
2023/08/28 08:16:05;;;;;;;21.25;19.38;;;;;;;21.50;61.43;99833.75;5040319;27;97111;-83
2023/08/28 08:18:31;;;;;;;19.58;18.17;;;;;;;21.56;61.65;99786.03;5020262;28;98679;-81
2023/08/28 08:20:57;;;;;;;21.00;19.13;;;;;;;21.73;61.47;99783.66;5012924;27;98153;-81
2023/08/28 08:23:23;;;;;;;21.02;19.25;;;;;;;21.89;60.99;99778.66;5022516;28;97026;-82
2023/08/28 08:25:49;;;;;;;19.90;18.58;;;;;;;22.09;60.53;99788.38;5030358;28;96986;-81
2023/08/28 08:28:17;;;;;;;18.92;17.60;;;;;;;22.11;60.30;99804.31;5011070;28;99341;-82
2023/08/28 08:30:43;;;;;;;18.52;17.27;;;;;;;22.17;59.98;99821.63;5021042;27;98713;-81
2023/08/28 08:33:10;;;;;;;19.98;18.67;;;;;;;22.15;59.75;99816.41;5025851;27;97068;-82
2023/08/28 08:35:36;;;;;;;21.15;19.70;;;;;;;22.10;59.92;99786.56;5028453;27;96809;-82
2023/08/28 08:38:01;;;;;;;19.98;18.65;;;;;;;21.97;59.76;99776.16;5015771;28;98734;-84
2023/08/28 08:40:27;;;;;;;19.73;18.27;;;;;;;21.92;60.70;99784.56;5030231;28;98337;-82
2023/08/28 08:42:53;;;;;;;19.95;18.58;;;;;;;21.93;60.97;99801.44;5010420;28;96785;-81
2023/08/28 08:45:21;;;;;;;20.77;19.40;;;;;;;21.82;60.98;99789.06;5009945;28;97168;-82
2023/08/28 08:47:48;;;;;;;20.33;18.92;;;;;;;21.85;61.20;99795.97;5030179;27;100200;-83
2023/08/28 08:50:14;;;;;;;19.67;18.48;;;;;;;21.83;61.29;99800.59;5016855;28;98915;-83
2023/08/28 08:52:41;;;;;;;19.80;18.50;;;;;;;21.69;60.97;99788.44;5006404;28;97146;-84
2023/08/28 08:55:15;;;;;;;20.45;18.92;;;;;;;21.66;61.03;99796.72;5010650;28;96856;-81
2023/08/28 08:57:43;;;;;;;20.95;19.40;;;;;;;21.63;61.38;99789.84;5009459;28;98533;-82
2023/08/28 09:00:17;;;;;;;20.40;19.10;;;;;;;21.70;61.05;99790.16;5019430;27;99266;-83
2023/08/28 09:02:43;;;;;;;20.85;19.08;;;;;;;21.56;61.31;99766.50;5024068;27;97213;-84
2023/08/28 09:05:09;;;;;;;21.45;19.48;;;;;;;21.63;61.59;99779.16;5038258;27;97116;-86
2023/08/28 09:07:36;;;;;;;20.73;18.95;;;;;;;21.76;61.30;99770.03;5018503;28;98703;-85
2023/08/28 09:10:04;;;;;;;21.33;19.65;;;;;;;21.82;60.88;99761.50;5020319;27;98909;-82
2023/08/28 09:12:30;;;;;;;20.98;19.42;;;;;;;21.91;60.53;99766.00;5007430;28;97172;-83
2023/08/28 09:14:55;;;;;;;20.88;18.70;;;;;;;21.94;60.64;99779.09;5013671;28;96798;-83
2023/08/28 09:17:21;;;;;;;22.27;20.08;;;;;;;22.21;60.29;99749.03;5021665;27;98723;-84
2023/08/28 09:19:47;;;;;;;21.77;19.90;;;;;;;22.56;59.31;99742.25;5020088;27;98338;-84
2023/08/28 09:22:13;;;;;;;21.02;19.38;;;;;;;23.10;58.19;99732.72;5037673;27;96801;-82
2023/08/28 09:24:38;;;;;;;21.42;19.58;;;;;;;23.33;57.29;99738.56;5025719;27;96937;-82
2023/08/28 09:27:04;;;;;;;20.75;19.30;;;;;;;23.31;57.26;99753.06;5011552;28;98662;-83
2023/08/28 09:29:30;;;;;;;21.15;19.55;;;;;;;23.28;56.97;99752.38;5022771;27;98441;-83
2023/08/28 09:32:03;;;;;;;20.02;18.50;;;;;;;23.34;57.19;99744.75;5041259;27;96783;-85
2023/08/28 09:34:46;;;;;;;20.38;18.70;;;;;;;23.19;57.58;99755.09;5028120;27;97297;-83
2023/08/28 09:37:12;;;;;;;25.95;19.45;;;;;;;23.02;57.78;99752.19;5031055;27;98694;-82
2023/08/28 09:39:42;;;;;;;20.50;18.80;;;;;;;22.91;58.27;99754.16;5040470;27;98263;-82
2023/08/28 09:42:09;;;;;;;21.13;19.65;;;;;;;22.83;58.19;99747.72;5012949;28;97063;-82
2023/08/28 09:44:37;;;;;;;32.45;19.70;;;;;;;22.64;58.28;99737.06;5027987;28;97015;-82
2023/08/28 09:47:03;;;;;;;23.08;20.20;;;;;;;22.65;58.73;99740.56;5003879;27;98827;-84
2023/08/28 09:49:28;;;;;;;19.90;18.25;;;;;;;22.77;58.75;99745.59;5016312;28;99116;-86
2023/08/28 09:51:57;;;;;;;21.17;19.38;;;;;;;22.82;58.79;99748.69;5034465;27;97302;-83
2023/08/28 09:54:22;;;;;;;21.08;19.27;;;;;;;22.69;58.97;99755.31;5026064;28;96896;-84
2023/08/28 09:56:48;;;;;;;22.05;20.40;;;;;;;22.58;58.91;99754.50;5017672;28;99084;-83
2023/08/28 09:59:15;;;;;;;21.50;19.33;;;;;;;22.51;59.07;99744.50;5032750;27;98870;-83
2023/08/28 10:01:41;;;;;;;20.67;19.13;;;;;;;22.43;59.09;99739.03;5022309;27;97051;-84
2023/08/28 10:04:12;;;;;;;22.08;20.52;;;;;;;22.42;59.27;99746.22;5015545;28;97143;-81
2023/08/28 10:06:47;;;;;;;21.38;19.90;;;;;;;22.68;58.93;99742.94;5010167;28;98953;-81
2023/08/28 10:09:18;;;;;;;22.50;20.33;;;;;;;23.03;57.92;99728.94;5017305;27;98365;-81
2023/08/28 10:11:45;;;;;;;21.45;19.58;;;;;;;23.14;57.09;99734.09;4985901;28;97477;-81
2023/08/28 10:14:11;;;;;;;21.60;20.10;;;;;;;23.21;57.55;99753.97;5018829;28;96998;-80
2023/08/28 10:16:50;;;;;;;21.15;19.23;;;;;;;23.00;56.35;99753.31;5029281;28;98932;-82
2023/08/28 10:19:26;;;;;;;20.75;19.42;;;;;;;22.68;56.61;99741.09;5023560;28;98639;-81
2023/08/28 10:21:52;;;;;;;21.98;20.30;;;;;;;22.89;56.73;99732.88;5028356;28;97450;-84
2023/08/28 10:24:19;;;;;;;21.42;19.92;;;;;;;23.22;56.34;99720.84;5013947;28;97353;-83
2023/08/28 10:26:46;;;;;;;20.23;18.83;;;;;;;23.41;55.83;99727.06;4986378;28;98610;-83
2023/08/28 10:29:15;;;;;;;20.33;18.25;;;;;;;23.43;56.12;99701.84;5024785;27;98737;-81
2023/08/28 10:31:41;;;;;;;19.75;17.98;;;;;;;23.76;55.08;99717.47;5019363;28;96712;-72
2023/08/28 10:34:08;;;;;;;20.65;19.05;;;;;;;23.72;55.05;99716.94;5013678;28;97261;-72
2023/08/28 10:36:34;;;;;;;20.63;19.10;;;;;;;23.59;54.80;99714.59;5008820;28;98893;-76
2023/08/28 10:39:03;;;;;;;20.48;18.88;;;;;;;23.42;55.64;99712.72;4995216;28;98795;-75
2023/08/28 10:41:29;;;;;;;20.85;19.33;;;;;;;23.09;55.81;99706.09;5024814;28;96909;-74
2023/08/28 10:43:57;;;;;;;19.85;18.45;;;;;;;22.93;55.76;99712.06;5027348;27;97253;-72
2023/08/28 10:46:22;;;;;;;21.10;19.60;;;;;;;22.75;56.14;99704.78;5018132;28;98947;-74
2023/08/28 10:48:48;;;;;;;21.15;19.65;;;;;;;22.92;56.15;99707.66;5012132;28;98342;-72
2023/08/28 10:51:14;;;;;;;21.58;19.70;;;;;;;23.09;55.68;99706.94;5004640;28;96806;-72
2023/08/28 10:53:39;;;;;;;20.50;18.35;;;;;;;23.14;56.12;99701.16;5019469;27;96970;-72
2023/08/28 10:56:06;;;;;;;20.88;19.02;;;;;;;22.89;56.81;99705.28;5007836;28;98602;-72
2023/08/28 10:58:36;;;;;;;20.75;19.15;;;;;;;22.94;56.42;99711.88;5030112;28;97917;-72
2023/08/28 11:01:28;;;;;;;20.23;18.70;;;;;;;22.92;55.74;99702.31;5021949;28;97322;-74
2023/08/28 11:03:58;;;;;;;20.50;18.92;;;;;;;23.13;55.52;99702.16;5006856;27;96888;-72
2023/08/28 11:06:43;;;;;;;20.13;18.70;;;;;;;23.35;55.60;99708.94;5029941;27;98652;-72
2023/08/28 11:09:30;;;;;;;21.00;19.17;;;;;;;23.41;55.26;99701.13;5025736;28;98345;-72
2023/08/28 11:12:01;;;;;;;19.92;18.35;;;;;;;23.26;54.95;99705.31;5035658;27;97198;-72
2023/08/28 11:14:30;;;;;;;;;;;;;;;23.40;55.00;99707.50;5029885;28;96938;-71
2023/08/28 11:17:12;;;;;;;20.00;18.35;;;;;;;23.53;55.47;99703.63;5030638;28;98586;-72